Latest Weather Observations for Cairns Racecourse

IDQ60801

Issued at 10:05 pm EST Saturday 19 April 2014 (issued every 30 minutes, with the page automatically refreshed every 10 minutes)

About weather observations | Map of weather stations | Latest weather observations for QLD | Other Formats
Station Details ID: 031222 Name: CAIRNS RACECOURSE Lat: -16.95 Lon: 145.75 Height: 4.1 m
Data from the previous 72 hours. | See also: Recent months for locations in Queensland
Date/Time
EST
Temp
°C
App
Temp
°C
Dew
Point
Rel
Hum
%
Delta-T
°C
Wind Press
QNH
hPa
Press
MSL
hPa
Rain
since 9 am
mm
Dir
 
Spd
km/h
Gust
km/h
Spd
kts
Gust
kts
19/10:00pm 22.9 26.5 19.7 82 2.1 ESE 0 0 0 0 - - 0.0
19/09:30pm 23.6 24.9 19.3 77 2.7 SSW 11 15 6 8 - - 0.0
19/09:00pm 23.6 25.3 19.3 77 2.7 SSW 9 13 5 7 - - 0.0
19/08:30pm 24.1 25.3 19.8 77 2.8 S 13 20 7 11 - - 0.0
19/08:00pm 23.6 25.6 19.9 80 2.4 S 9 13 5 7 - - 0.0
19/07:30pm 23.7 26.3 20.0 80 2.4 S 6 9 3 5 - - 0.0
19/07:00pm 24.0 26.3 19.9 78 2.6 S 7 9 4 5 - - 0.0
19/06:30pm 25.0 26.9 19.8 73 3.4 SE 9 15 5 8 - - 0.0
19/06:00pm 25.8 26.9 19.7 69 3.9 ESE 13 20 7 11 - - 0.0
19/05:30pm 26.3 26.5 19.4 66 4.4 ESE 17 26 9 14 - - 0.0
19/05:00pm 27.2 27.0 19.8 64 4.8 ESE 20 30 11 16 - - 0.0
19/04:30pm 27.9 28.2 20.5 64 4.9 ESE 19 30 10 16 - - 0.0
19/04:00pm 28.1 28.4 19.6 60 5.5 E 17 26 9 14 - - 0.0
19/03:30pm 28.3 28.0 19.5 59 5.7 ESE 20 28 11 15 - - 0.0
19/03:00pm 28.5 28.3 19.4 57 5.9 ESE 19 28 10 15 - - 0.0
19/02:30pm 28.5 28.2 19.1 56 6.1 ESE 19 30 10 16 - - 0.0
19/02:00pm 28.6 29.0 20.9 63 5.1 ESE 20 30 11 16 - - 0.0
19/01:30pm 29.3 31.0 22.3 66 4.7 ESE 17 33 9 18 - - 0.0
19/01:00pm 28.6 28.4 19.8 59 5.7 ESE 20 30 11 16 - - 0.0
19/12:30pm 28.9 29.9 21.1 62 5.2 ESE 17 28 9 15 - - 0.0
19/12:00pm 28.7 29.8 21.2 64 5.0 SE 17 28 9 15 - - 0.0
19/11:30am 27.9 28.7 20.7 65 4.8 ESE 17 26 9 14 - - 0.0
19/11:00am 28.2 29.8 22.2 70 4.0 ESE 17 24 9 13 - - 0.0
19/10:30am 27.7 30.6 22.4 73 3.6 SE 11 17 6 9 - - 0.0
19/10:00am 27.0 29.5 22.4 76 3.1 SSE 13 17 7 9 - - 0.0
19/09:30am 27.0 29.5 22.4 76 3.1 SSE 13 17 7 9 - - 0.0
19/09:00am 25.9 28.8 22.4 81 2.4 SSE 11 15 6 8 - - 2.8
19/08:30am 24.3 27.4 22.2 88 1.4 SSE 9 15 5 8 - - 2.8
19/08:00am 22.8 25.0 21.8 94 0.7 SSE 13 17 7 9 - - 2.8
19/07:30am 22.2 25.5 21.9 98 0.2 S 7 11 4 6 - - 2.6
19/07:00am 22.1 25.1 21.9 99 0.1 S 9 11 5 6 - - 2.6
19/06:30am 21.9 26.0 21.6 98 0.2 S 2 7 1 4 - - 2.6
19/06:00am 22.1 26.7 21.8 98 0.2 SSW 0 0 0 0 - - 2.6
19/05:30am 22.4 25.9 22.1 98 0.2 WSW 7 9 4 5 - - 2.6
19/05:00am 22.6 25.8 22.3 98 0.2 ENE 9 17 5 9 - - 2.6
19/04:30am 22.3 25.9 22.0 98 0.2 SSW 6 7 3 4 - - 0.4
19/04:00am 22.5 26.6 22.2 98 0.2 S 4 6 2 3 - - 0.4
19/03:30am 22.3 25.7 22.0 98 0.2 S 7 9 4 5 - - 0.4
19/03:00am 22.3 25.6 21.8 97 0.3 SSW 7 9 4 5 - - 0.4
19/02:30am 22.5 26.2 22.2 98 0.2 SSW 6 7 3 4 - - 0.4
19/02:00am 22.2 25.6 21.7 97 0.3 WSW 6 7 3 4 - - 0.4
19/01:30am 22.5 27.2 22.0 97 0.3 CALM 0 0 0 0 - - 0.4
19/01:00am 22.4 25.8 21.7 96 0.5 S 6 7 3 4 - - 0.4
19/12:30am 22.6 27.0 22.1 97 0.3 SSE 2 6 1 3 - - 0.4
19/12:00am 22.4 27.0 21.7 96 0.5 CALM 0 0 0 0 - - 0.4
 
Date/Time
EST
Temp
°C
App
Temp
°C
Dew
Point
Rel
Hum
%
Delta-T
°C
Wind Press
QNH
hPa
Press
MSL
hPa
Rain
since 9 am
mm
Dir
 
Spd
km/h
Gust
km/h
Spd
kts
Gust
kts
18/11:30pm 22.6 27.2 21.8 95 0.5 CALM 0 0 0 0 - - 0.4
18/11:00pm 22.9 27.5 21.7 93 0.8 CALM 0 0 0 0 - - 0.4
18/10:30pm 23.2 27.8 21.8 92 0.9 CALM 0 0 0 0 - - 0.4
18/10:00pm 23.6 27.2 22.0 91 1.1 SSE 6 9 3 5 - - 0.4
18/09:30pm 23.8 26.4 21.9 89 1.3 S 11 13 6 7 - - 0.4
18/09:00pm 24.1 27.8 22.2 89 1.3 SSE 6 7 3 4 - - 0.4
18/08:30pm 23.9 27.4 22.2 90 1.1 SE 7 9 4 5 - - 0.4
18/08:00pm 24.2 27.7 22.1 88 1.4 SE 7 11 4 6 - - 0.4
18/07:30pm 24.0 27.1 21.5 86 1.7 S 7 11 4 6 - - 0.2
18/07:00pm 24.0 27.4 21.7 87 1.5 SSW 6 7 3 4 - - 0.2
18/06:30pm 24.7 29.5 22.2 86 1.7 CALM 0 0 0 0 - - 0.2
18/06:00pm 25.3 29.6 22.0 82 2.2 SW 2 7 1 4 - - 0.2
18/05:30pm 25.7 28.4 21.4 77 2.8 SSE 9 13 5 7 - - 0.2
18/05:00pm 26.6 27.2 21.1 72 3.6 E 19 28 10 15 - - 0.2
18/04:30pm 27.8 29.7 21.3 67 4.3 ESE 13 20 7 11 - - 0.2
18/04:00pm 28.4 30.0 21.4 66 4.7 ESE 15 22 8 12 - - 0.2
18/03:30pm 29.7 30.9 21.4 61 5.6 E 17 22 9 12 - - 0.2
18/03:00pm 29.3 30.8 21.3 62 5.3 SE 15 26 8 14 - - 0.2
18/02:30pm 28.0 28.9 21.5 67 4.3 SE 19 22 10 12 - - 0.2
18/02:00pm 27.1 30.1 23.3 80 2.6 S 13 20 7 11 - - 0.2
18/01:30pm 26.2 29.1 23.1 83 2.1 S 13 20 7 11 - - 0.2
18/01:00pm 27.1 30.8 22.5 76 3.1 S 7 15 4 8 - - 0.0
18/12:30pm 26.1 27.7 22.2 79 2.6 SSE 17 26 9 14 - - 0.0
18/12:00pm 28.0 30.3 22.7 73 3.6 SE 15 20 8 11 - - 0.0
18/11:30am 28.4 31.1 22.9 72 3.7 SSE 13 20 7 11 - - 0.0
18/11:00am 28.2 30.6 22.9 73 3.6 SSE 15 20 8 11 - - 0.0
18/10:30am 27.5 29.4 22.0 72 3.7 SSE 15 20 8 11 - - 0.0
18/10:00am 27.1 29.5 22.9 78 2.9 S 15 20 8 11 - - 0.0
18/09:30am 26.8 30.0 23.1 80 2.5 SSE 11 20 6 11 - - 0.0
18/09:00am 26.1 29.0 22.4 80 2.5 S 11 17 6 9 - - 0.0
18/08:30am 25.5 28.8 22.6 84 2.0 S 9 13 5 7 - - 0.0
18/08:00am 25.0 28.2 22.3 85 1.8 SSE 9 15 5 8 - - 0.0
18/07:30am 24.7 27.3 22.0 85 1.8 S 11 15 6 8 - - 0.0
18/07:00am 24.4 27.1 22.1 87 1.5 S 11 15 6 8 - - 0.0
18/06:30am 24.4 27.1 22.1 87 1.5 S 11 15 6 8 - - 0.0
18/06:00am 24.3 27.4 22.2 88 1.4 S 9 15 5 8 - - 0.0
18/05:30am 24.3 27.4 22.2 88 1.4 SSE 9 13 5 7 - - 0.0
18/05:00am 24.5 27.6 22.2 87 1.5 S 9 15 5 8 - - 0.0
18/04:30am 24.5 27.0 22.4 88 1.4 S 13 17 7 9 - - 0.0
18/04:00am 24.5 27.4 22.4 88 1.4 S 11 15 6 8 - - 0.0
18/03:30am 24.6 27.1 22.5 88 1.4 S 13 19 7 10 - - 0.0
18/03:00am 24.7 28.3 22.4 87 1.5 SSE 7 11 4 6 - - 0.0
18/02:30am 25.0 28.3 22.5 86 1.7 SSE 9 15 5 8 - - 0.0
18/02:00am 24.7 27.8 22.2 86 1.7 S 9 13 5 7 - - 0.0
18/01:30am 25.0 28.2 22.3 85 1.8 SSE 9 13 5 7 - - 0.0
18/01:00am 24.8 28.0 22.3 86 1.7 S 9 13 5 7 - - 0.0
18/12:30am 24.8 27.6 22.3 86 1.7 S 11 17 6 9 - - 0.0
18/12:00am 25.4 29.0 22.3 83 2.1 SSE 7 9 4 5 - - 0.0
 
Date/Time
EST
Temp
°C
App
Temp
°C
Dew
Point
Rel
Hum
%
Delta-T
°C
Wind Press
QNH
hPa
Press
MSL
hPa
Rain
since 9 am
mm
Dir
 
Spd
km/h
Gust
km/h
Spd
kts
Gust
kts
17/11:30pm 25.0 28.5 22.1 84 1.9 SSW 7 11 4 6 - - 0.0
17/11:00pm 25.3 28.4 22.2 83 2.1 S 9 15 5 8 - - 0.0
17/10:30pm 24.9 28.0 22.2 85 1.8 S 9 13 5 7 - - 0.0
17/10:00pm 25.0 28.5 22.1 84 1.9 S 7 13 4 7 - - 0.0
17/09:30pm 25.1 27.8 22.2 84 1.9 S 11 17 6 9 - - 0.0
17/09:00pm 25.1 28.2 22.2 84 1.9 S 9 15 5 8 - - 0.0
17/08:30pm 25.5 28.2 22.2 82 2.2 S 11 15 6 8 - - 0.0
17/08:00pm 25.2 28.2 21.9 82 2.2 S 9 15 5 8 - - 0.0
17/07:30pm 25.2 28.5 21.9 82 2.2 S 7 11 4 6 - - 0.0
17/07:00pm 25.5 28.8 21.8 80 2.5 S 7 13 4 7 - - 0.0
17/06:30pm 25.9 28.7 21.6 77 2.9 S 9 15 5 8 - - 0.0
17/06:00pm 26.9 28.9 21.6 72 3.5 SE 13 20 7 11 - - 0.0
17/05:30pm 27.7 29.0 21.7 70 4.0 ESE 17 26 9 14 - - 0.0
17/05:00pm 27.4 28.4 22.1 73 3.6 ESE 20 32 11 17 - - 0.0
17/04:30pm 27.7 29.1 22.9 75 3.3 ESE 20 33 11 18 - - 0.0
17/04:00pm 28.1 29.4 22.6 72 3.7 ESE 20 33 11 18 - - 0.0
17/03:30pm 29.2 30.8 23.9 73 3.7 SE 22 33 12 18 - - 0.0
17/03:00pm 28.8 30.4 23.2 71 3.8 ESE 20 35 11 19 - - 0.0
17/02:30pm 28.9 30.6 23.1 71 4.0 ESE 19 28 10 15 - - 0.0
17/02:00pm 28.7 30.8 23.1 71 3.8 ESE 17 22 9 12 - - 0.0
17/01:30pm 29.1 30.6 23.1 70 4.1 ESE 20 26 11 14 - - 0.0
17/01:00pm 28.5 30.3 22.5 70 4.1 ESE 17 26 9 14 - - 0.0
17/12:30pm 28.6 30.8 23.3 73 3.6 ESE 17 24 9 13 - - 0.0
17/12:00pm 28.5 30.8 23.4 74 3.5 ESE 17 22 9 12 - - 0.0
17/11:30am 28.5 30.9 23.6 75 3.4 SE 17 22 9 12 - - 0.0
17/11:00am 28.0 31.4 23.4 76 3.2 SSE 11 17 6 9 - - 0.0
17/10:30am 27.4 30.4 23.4 79 2.7 SSE 13 17 7 9 - - 0.0
17/10:00am 27.0 29.7 23.5 81 2.4 SSE 15 20 8 11 - - 0.0
17/09:30am 26.8 29.5 22.8 79 2.7 SSE 13 19 7 10 - - 0.0
17/09:00am 26.3 29.5 23.0 82 2.2 S 11 17 6 9 - - 0.2
17/08:30am 26.0 28.7 22.9 83 2.1 S 13 20 7 11 - - 0.2
17/08:00am 25.5 28.2 22.8 85 1.8 S 13 17 7 9 - - 0.2
17/07:30am 25.3 28.0 22.8 86 1.7 S 13 17 7 9 - - 0.2
17/07:00am 25.0 28.0 22.7 87 1.5 S 11 17 6 9 - - 0.2
17/06:30am 24.8 27.8 22.7 88 1.4 S 11 15 6 8 - - 0.2
17/06:00am 24.8 27.7 22.5 87 1.5 S 11 15 6 8 - - 0.2
17/05:30am 24.9 27.9 22.6 87 1.5 S 11 15 6 8 - - 0.2
17/05:00am 24.9 27.6 22.8 88 1.4 S 13 17 7 9 - - 0.2
17/04:30am 24.7 27.4 22.8 89 1.3 S 13 19 7 10 - - 0.2
17/04:00am 24.8 27.4 22.7 88 1.4 S 13 15 7 8 - - 0.2
17/03:30am 24.6 27.5 22.5 88 1.4 S 11 15 6 8 - - 0.2
17/03:00am 24.2 27.8 22.3 89 1.3 SSE 7 11 4 6 - - 0.2
17/02:30am 24.3 27.9 22.4 89 1.3 SSE 7 13 4 7 - - 0.2
17/02:00am 24.4 27.6 22.3 88 1.4 S 9 15 5 8 - - 0.2
17/01:30am 24.3 28.0 22.6 90 1.1 S 7 11 4 6 - - 0.2
17/01:00am 24.4 28.2 22.8 91 1.1 SSE 7 9 4 5 - - 0.2
17/12:30am 25.0 28.2 22.3 85 1.8 SSE 9 11 5 6 - - 0.0
17/12:00am 25.0 28.6 22.3 85 1.8 SSE 7 13 4 7 - - 0.0
 
Date/Time
EST
Temp
°C
App
Temp
°C
Dew
Point
Rel
Hum
%
Delta-T
°C
Wind Press
QNH
hPa
Press
MSL
hPa
Rain
since 9 am
mm
Dir
 
Spd
km/h
Gust
km/h
Spd
kts
Gust
kts
16/11:30pm 25.0 28.5 22.1 84 1.9 S 7 13 4 7 - - 0.0
16/11:00pm 24.7 28.4 22.2 86 1.7 S 6 9 3 5 - - 0.0
16/10:30pm 24.9 28.4 22.2 85 1.8 SSE 7 9 4 5 - - 0.0

Other Formats:

Comma delimited format used in spreadsheet applications
http://www.bom.gov.au/fwo/IDQ60801/IDQ60801.94288.axf

JavaScript Object Notation format (JSON) in row-major order
http://www.bom.gov.au/fwo/IDQ60801/IDQ60801.94288.json